sensor_id;sensor_type;location;lat;lon;timestamp;P1;durP1;ratioP1;P2;durP2;ratioP2
38083;SDS011;23894;51.466;7.444;2023-04-12T00:01:16;11.30;;;3.28;;
38083;SDS011;23894;51.466;7.444;2023-04-12T00:03:18;9.02;;;2.75;;
38083;SDS011;23894;51.466;7.444;2023-04-12T00:05:19;9.85;;;2.65;;
38083;SDS011;23894;51.466;7.444;2023-04-12T00:07:26;10.13;;;2.90;;
38083;SDS011;23894;51.466;7.444;2023-04-12T00:09:30;8.43;;;2.97;;
38083;SDS011;23894;51.466;7.444;2023-04-12T00:11:31;11.55;;;3.05;;
38083;SDS011;23894;51.466;7.444;2023-04-12T00:13:35;7.85;;;2.80;;
38083;SDS011;23894;51.466;7.444;2023-04-12T00:15:37;10.13;;;2.85;;
38083;SDS011;23894;51.466;7.444;2023-04-12T00:17:41;10.05;;;2.80;;
38083;SDS011;23894;51.466;7.444;2023-04-12T00:19:43;9.13;;;2.75;;
38083;SDS011;23894;51.466;7.444;2023-04-12T00:21:45;9.00;;;3.15;;
38083;SDS011;23894;51.466;7.444;2023-04-12T00:23:49;10.32;;;3.00;;
38083;SDS011;23894;51.466;7.444;2023-04-12T00:25:52;8.80;;;2.75;;
38083;SDS011;23894;51.466;7.444;2023-04-12T00:27:56;9.50;;;2.77;;
38083;SDS011;23894;51.466;7.444;2023-04-12T00:29:59;8.88;;;2.67;;
38083;SDS011;23894;51.466;7.444;2023-04-12T00:32:01;9.25;;;2.90;;
38083;SDS011;23894;51.466;7.444;2023-04-12T00:34:04;8.60;;;2.63;;
38083;SDS011;23894;51.466;7.444;2023-04-12T00:36:07;9.38;;;3.05;;
38083;SDS011;23894;51.466;7.444;2023-04-12T00:38:12;7.70;;;2.85;;
38083;SDS011;23894;51.466;7.444;2023-04-12T00:40:16;10.63;;;3.00;;
38083;SDS011;23894;51.466;7.444;2023-04-12T00:42:17;8.18;;;2.70;;
38083;SDS011;23894;51.466;7.444;2023-04-12T00:44:18;9.20;;;2.70;;
38083;SDS011;23894;51.466;7.444;2023-04-12T00:46:23;9.10;;;3.00;;
38083;SDS011;23894;51.466;7.444;2023-04-12T00:48:25;11.10;;;3.13;;
38083;SDS011;23894;51.466;7.444;2023-04-12T00:50:28;10.85;;;3.30;;
38083;SDS011;23894;51.466;7.444;2023-04-12T00:52:31;9.63;;;3.00;;
38083;SDS011;23894;51.466;7.444;2023-04-12T00:54:42;9.73;;;2.90;;
38083;SDS011;23894;51.466;7.444;2023-04-12T00:56:48;8.30;;;2.70;;
38083;SDS011;23894;51.466;7.444;2023-04-12T00:58:52;9.70;;;2.97;;
38083;SDS011;23894;51.466;7.444;2023-04-12T01:00:54;10.50;;;3.05;;
38083;SDS011;23894;51.466;7.444;2023-04-12T01:02:56;8.85;;;3.10;;
38083;SDS011;23894;51.466;7.444;2023-04-12T01:05:04;10.67;;;3.03;;
38083;SDS011;23894;51.466;7.444;2023-04-12T01:07:39;8.82;;;3.05;;
38083;SDS011;23894;51.466;7.444;2023-04-12T01:10:04;11.60;;;2.67;;
38083;SDS011;23894;51.466;7.444;2023-04-12T01:14:27;9.85;;;2.78;;
38083;SDS011;23894;51.466;7.444;2023-04-12T01:16:36;7.78;;;2.78;;
38083;SDS011;23894;51.466;7.444;2023-04-12T01:18:41;9.73;;;2.80;;
38083;SDS011;23894;51.466;7.444;2023-04-12T01:20:50;10.75;;;2.80;;
38083;SDS011;23894;51.466;7.444;2023-04-12T01:27:53;8.32;;;2.72;;
38083;SDS011;23894;51.466;7.444;2023-04-12T01:29:58;8.38;;;2.70;;
38083;SDS011;23894;51.466;7.444;2023-04-12T01:32:03;8.13;;;2.65;;
38083;SDS011;23894;51.466;7.444;2023-04-12T01:34:09;9.00;;;3.00;;
38083;SDS011;23894;51.466;7.444;2023-04-12T01:36:15;8.23;;;2.42;;
38083;SDS011;23894;51.466;7.444;2023-04-12T01:38:19;9.50;;;2.72;;
38083;SDS011;23894;51.466;7.444;2023-04-12T01:40:21;8.70;;;2.65;;
38083;SDS011;23894;51.466;7.444;2023-04-12T01:42:44;8.53;;;2.50;;
38083;SDS011;23894;51.466;7.444;2023-04-12T01:44:48;7.80;;;2.67;;
38083;SDS011;23894;51.466;7.444;2023-04-12T01:46:50;8.73;;;2.75;;
38083;SDS011;23894;51.466;7.444;2023-04-12T01:48:54;8.63;;;2.90;;
38083;SDS011;23894;51.466;7.444;2023-04-12T01:51:03;10.40;;;2.60;;
38083;SDS011;23894;51.466;7.444;2023-04-12T01:55:17;9.05;;;3.20;;
38083;SDS011;23894;51.466;7.444;2023-04-12T01:57:24;7.85;;;2.55;;
38083;SDS011;23894;51.466;7.444;2023-04-12T01:59:35;8.45;;;2.97;;
38083;SDS011;23894;51.466;7.444;2023-04-12T02:01:40;12.00;;;3.20;;
38083;SDS011;23894;51.466;7.444;2023-04-12T02:03:42;10.90;;;2.92;;
38083;SDS011;23894;51.466;7.444;2023-04-12T02:05:44;8.90;;;2.90;;
38083;SDS011;23894;51.466;7.444;2023-04-12T02:07:47;9.15;;;2.65;;
38083;SDS011;23894;51.466;7.444;2023-04-12T02:09:50;10.18;;;3.13;;
38083;SDS011;23894;51.466;7.444;2023-04-12T02:11:52;8.95;;;2.83;;
38083;SDS011;23894;51.466;7.444;2023-04-12T02:13:56;10.97;;;2.90;;
38083;SDS011;23894;51.466;7.444;2023-04-12T02:16:01;10.73;;;2.72;;
38083;SDS011;23894;51.466;7.444;2023-04-12T02:18:05;9.07;;;2.50;;
38083;SDS011;23894;51.466;7.444;2023-04-12T02:20:07;10.32;;;3.10;;
38083;SDS011;23894;51.466;7.444;2023-04-12T02:22:11;7.95;;;2.70;;
38083;SDS011;23894;51.466;7.444;2023-04-12T02:24:14;8.77;;;2.70;;
38083;SDS011;23894;51.466;7.444;2023-04-12T02:26:17;9.25;;;2.80;;
38083;SDS011;23894;51.466;7.444;2023-04-12T02:28:18;8.13;;;2.95;;
38083;SDS011;23894;51.466;7.444;2023-04-12T02:30:22;10.05;;;3.08;;
38083;SDS011;23894;51.466;7.444;2023-04-12T02:32:24;10.32;;;3.05;;
38083;SDS011;23894;51.466;7.444;2023-04-12T02:34:26;9.98;;;3.10;;
38083;SDS011;23894;51.466;7.444;2023-04-12T02:36:33;8.93;;;2.80;;
38083;SDS011;23894;51.466;7.444;2023-04-12T02:38:36;7.45;;;2.60;;
38083;SDS011;23894;51.466;7.444;2023-04-12T02:40:39;9.90;;;2.95;;
38083;SDS011;23894;51.466;7.444;2023-04-12T02:42:42;8.75;;;2.88;;
38083;SDS011;23894;51.466;7.444;2023-04-12T02:44:46;8.50;;;2.70;;
38083;SDS011;23894;51.466;7.444;2023-04-12T02:46:47;7.90;;;2.70;;
38083;SDS011;23894;51.466;7.444;2023-04-12T02:48:51;8.27;;;2.60;;
38083;SDS011;23894;51.466;7.444;2023-04-12T02:50:53;8.95;;;2.67;;
38083;SDS011;23894;51.466;7.444;2023-04-12T02:52:57;8.50;;;2.63;;
38083;SDS011;23894;51.466;7.444;2023-04-12T02:54:58;8.98;;;2.60;;
38083;SDS011;23894;51.466;7.444;2023-04-12T02:57:02;7.75;;;2.55;;
38083;SDS011;23894;51.466;7.444;2023-04-12T02:59:05;8.95;;;3.10;;
38083;SDS011;23894;51.466;7.444;2023-04-12T03:01:09;8.93;;;2.50;;
38083;SDS011;23894;51.466;7.444;2023-04-12T03:03:11;9.30;;;2.63;;
38083;SDS011;23894;51.466;7.444;2023-04-12T03:05:14;9.75;;;2.45;;
38083;SDS011;23894;51.466;7.444;2023-04-12T03:07:17;10.40;;;2.70;;
38083;SDS011;23894;51.466;7.444;2023-04-12T03:09:18;7.83;;;2.40;;
38083;SDS011;23894;51.466;7.444;2023-04-12T03:11:22;9.57;;;2.53;;
38083;SDS011;23894;51.466;7.444;2023-04-12T03:13:24;9.40;;;2.97;;
38083;SDS011;23894;51.466;7.444;2023-04-12T03:15:28;9.40;;;2.83;;
38083;SDS011;23894;51.466;7.444;2023-04-12T03:17:30;7.63;;;2.50;;
38083;SDS011;23894;51.466;7.444;2023-04-12T03:19:31;6.47;;;2.40;;
38083;SDS011;23894;51.466;7.444;2023-04-12T03:21:37;8.52;;;2.70;;
38083;SDS011;23894;51.466;7.444;2023-04-12T03:23:41;10.87;;;2.70;;
38083;SDS011;23894;51.466;7.444;2023-04-12T03:25:44;9.73;;;2.50;;
38083;SDS011;23894;51.466;7.444;2023-04-12T03:27:47;7.10;;;2.67;;
38083;SDS011;23894;51.466;7.444;2023-04-12T03:29:51;7.43;;;2.30;;
38083;SDS011;23894;51.466;7.444;2023-04-12T03:31:55;7.75;;;2.40;;
38083;SDS011;23894;51.466;7.444;2023-04-12T03:33:59;8.00;;;2.45;;
38083;SDS011;23894;51.466;7.444;2023-04-12T03:36:01;7.03;;;2.25;;
38083;SDS011;23894;51.466;7.444;2023-04-12T03:38:06;7.18;;;2.22;;
38083;SDS011;23894;51.466;7.444;2023-04-12T03:40:10;7.57;;;2.70;;
38083;SDS011;23894;51.466;7.444;2023-04-12T03:42:12;7.15;;;2.10;;
38083;SDS011;23894;51.466;7.444;2023-04-12T03:44:13;8.50;;;2.55;;
38083;SDS011;23894;51.466;7.444;2023-04-12T03:46:15;8.57;;;2.13;;
38083;SDS011;23894;51.466;7.444;2023-04-12T03:48:18;5.70;;;2.10;;
38083;SDS011;23894;51.466;7.444;2023-04-12T03:50:22;10.07;;;2.63;;
38083;SDS011;23894;51.466;7.444;2023-04-12T03:52:24;6.05;;;2.50;;
38083;SDS011;23894;51.466;7.444;2023-04-12T03:54:27;6.20;;;2.38;;
38083;SDS011;23894;51.466;7.444;2023-04-12T03:56:31;6.57;;;2.28;;
38083;SDS011;23894;51.466;7.444;2023-04-12T03:58:32;7.23;;;2.50;;
38083;SDS011;23894;51.466;7.444;2023-04-12T04:00:36;6.90;;;2.30;;
38083;SDS011;23894;51.466;7.444;2023-04-12T04:02:38;7.10;;;2.33;;
38083;SDS011;23894;51.466;7.444;2023-04-12T04:04:41;6.38;;;2.50;;
38083;SDS011;23894;51.466;7.444;2023-04-12T04:06:45;6.75;;;2.22;;
38083;SDS011;23894;51.466;7.444;2023-04-12T04:08:49;7.18;;;2.45;;
38083;SDS011;23894;51.466;7.444;2023-04-12T04:10:51;6.35;;;2.17;;
38083;SDS011;23894;51.466;7.444;2023-04-12T04:12:54;6.28;;;2.28;;
38083;SDS011;23894;51.466;7.444;2023-04-12T04:14:55;7.75;;;2.65;;
38083;SDS011;23894;51.466;7.444;2023-04-12T04:16:57;6.05;;;2.20;;
38083;SDS011;23894;51.466;7.444;2023-04-12T04:19:01;6.43;;;2.30;;
38083;SDS011;23894;51.466;7.444;2023-04-12T04:21:06;7.45;;;2.60;;
38083;SDS011;23894;51.466;7.444;2023-04-12T04:23:10;6.70;;;2.50;;
38083;SDS011;23894;51.466;7.444;2023-04-12T04:25:39;6.57;;;2.57;;
38083;SDS011;23894;51.466;7.444;2023-04-12T04:27:42;7.73;;;2.50;;
38083;SDS011;23894;51.466;7.444;2023-04-12T04:29:47;6.50;;;2.30;;
38083;SDS011;23894;51.466;7.444;2023-04-12T04:31:51;6.97;;;2.20;;
38083;SDS011;23894;51.466;7.444;2023-04-12T04:33:54;6.93;;;2.40;;
38083;SDS011;23894;51.466;7.444;2023-04-12T04:35:56;6.27;;;2.40;;
38083;SDS011;23894;51.466;7.444;2023-04-12T04:37:58;7.10;;;2.40;;
38083;SDS011;23894;51.466;7.444;2023-04-12T04:40:05;5.82;;;2.40;;
38083;SDS011;23894;51.466;7.444;2023-04-12T04:42:08;6.22;;;2.40;;
38083;SDS011;23894;51.466;7.444;2023-04-12T04:44:10;6.05;;;2.35;;
38083;SDS011;23894;51.466;7.444;2023-04-12T04:46:17;6.18;;;2.20;;
38083;SDS011;23894;51.466;7.444;2023-04-12T04:48:22;6.47;;;2.27;;
38083;SDS011;23894;51.466;7.444;2023-04-12T04:50:24;6.10;;;2.45;;
38083;SDS011;23894;51.466;7.444;2023-04-12T04:52:28;6.60;;;2.60;;
38083;SDS011;23894;51.466;7.444;2023-04-12T04:54:30;6.70;;;2.50;;
38083;SDS011;23894;51.466;7.444;2023-04-12T04:56:33;5.20;;;2.20;;
38083;SDS011;23894;51.466;7.444;2023-04-12T04:58:36;6.77;;;2.10;;
38083;SDS011;23894;51.466;7.444;2023-04-12T05:00:38;5.97;;;2.25;;
38083;SDS011;23894;51.466;7.444;2023-04-12T05:02:53;5.97;;;2.10;;
38083;SDS011;23894;51.466;7.444;2023-04-12T05:04:55;7.10;;;2.50;;
38083;SDS011;23894;51.466;7.444;2023-04-12T05:07:00;6.90;;;2.40;;
38083;SDS011;23894;51.466;7.444;2023-04-12T05:09:02;5.93;;;2.10;;
38083;SDS011;23894;51.466;7.444;2023-04-12T05:11:04;6.03;;;2.40;;
38083;SDS011;23894;51.466;7.444;2023-04-12T05:13:07;6.70;;;2.33;;
38083;SDS011;23894;51.466;7.444;2023-04-12T05:15:09;5.78;;;1.90;;
38083;SDS011;23894;51.466;7.444;2023-04-12T05:17:10;6.43;;;2.22;;
38083;SDS011;23894;51.466;7.444;2023-04-12T05:19:14;5.85;;;2.00;;
38083;SDS011;23894;51.466;7.444;2023-04-12T05:21:17;5.73;;;2.17;;
38083;SDS011;23894;51.466;7.444;2023-04-12T05:23:18;6.13;;;2.05;;
38083;SDS011;23894;51.466;7.444;2023-04-12T05:25:31;5.75;;;2.05;;
38083;SDS011;23894;51.466;7.444;2023-04-12T05:27:43;6.05;;;2.17;;
38083;SDS011;23894;51.466;7.444;2023-04-12T05:29:45;6.15;;;2.20;;
38083;SDS011;23894;51.466;7.444;2023-04-12T05:31:47;5.95;;;1.98;;
38083;SDS011;23894;51.466;7.444;2023-04-12T05:33:50;5.35;;;2.08;;
38083;SDS011;23894;51.466;7.444;2023-04-12T05:35:54;4.75;;;1.90;;
38083;SDS011;23894;51.466;7.444;2023-04-12T05:37:55;5.53;;;2.00;;
38083;SDS011;23894;51.466;7.444;2023-04-12T05:39:57;5.40;;;1.92;;
38083;SDS011;23894;51.466;7.444;2023-04-12T05:41:58;6.32;;;2.20;;
38083;SDS011;23894;51.466;7.444;2023-04-12T05:44:02;6.70;;;2.35;;
38083;SDS011;23894;51.466;7.444;2023-04-12T05:46:06;5.13;;;2.10;;
38083;SDS011;23894;51.466;7.444;2023-04-12T05:48:09;5.25;;;2.13;;
38083;SDS011;23894;51.466;7.444;2023-04-12T05:50:13;6.15;;;2.20;;
38083;SDS011;23894;51.466;7.444;2023-04-12T05:52:16;5.25;;;1.80;;
38083;SDS011;23894;51.466;7.444;2023-04-12T05:54:18;6.70;;;2.00;;
38083;SDS011;23894;51.466;7.444;2023-04-12T05:56:20;5.38;;;2.20;;
38083;SDS011;23894;51.466;7.444;2023-04-12T05:58:21;5.88;;;2.13;;
38083;SDS011;23894;51.466;7.444;2023-04-12T06:00:28;6.13;;;2.22;;
38083;SDS011;23894;51.466;7.444;2023-04-12T06:02:32;5.15;;;1.70;;
38083;SDS011;23894;51.466;7.444;2023-04-12T06:04:35;5.30;;;2.03;;
38083;SDS011;23894;51.466;7.444;2023-04-12T06:06:41;5.32;;;2.00;;
38083;SDS011;23894;51.466;7.444;2023-04-12T06:08:45;5.25;;;1.92;;
38083;SDS011;23894;51.466;7.444;2023-04-12T06:10:49;9.27;;;2.20;;
38083;SDS011;23894;51.466;7.444;2023-04-12T06:12:51;5.27;;;1.87;;
38083;SDS011;23894;51.466;7.444;2023-04-12T06:14:54;5.50;;;1.80;;
38083;SDS011;23894;51.466;7.444;2023-04-12T06:16:58;5.22;;;1.92;;
38083;SDS011;23894;51.466;7.444;2023-04-12T06:19:00;5.13;;;2.05;;
38083;SDS011;23894;51.466;7.444;2023-04-12T06:21:04;6.10;;;1.88;;
38083;SDS011;23894;51.466;7.444;2023-04-12T06:23:08;4.93;;;1.73;;
38083;SDS011;23894;51.466;7.444;2023-04-12T06:25:10;5.80;;;1.85;;
38083;SDS011;23894;51.466;7.444;2023-04-12T06:27:12;4.55;;;1.73;;
38083;SDS011;23894;51.466;7.444;2023-04-12T06:29:13;4.93;;;1.77;;
38083;SDS011;23894;51.466;7.444;2023-04-12T06:31:16;5.75;;;1.88;;
38083;SDS011;23894;51.466;7.444;2023-04-12T06:33:20;5.38;;;1.75;;
38083;SDS011;23894;51.466;7.444;2023-04-12T06:35:23;4.47;;;1.55;;
38083;SDS011;23894;51.466;7.444;2023-04-12T06:37:31;4.53;;;2.20;;
38083;SDS011;23894;51.466;7.444;2023-04-12T06:39:32;5.10;;;1.98;;
38083;SDS011;23894;51.466;7.444;2023-04-12T06:41:34;4.05;;;1.70;;
38083;SDS011;23894;51.466;7.444;2023-04-12T06:43:37;4.68;;;1.60;;
38083;SDS011;23894;51.466;7.444;2023-04-12T06:45:41;4.03;;;1.77;;
38083;SDS011;23894;51.466;7.444;2023-04-12T06:47:44;5.30;;;1.55;;
38083;SDS011;23894;51.466;7.444;2023-04-12T06:49:47;6.35;;;1.90;;
38083;SDS011;23894;51.466;7.444;2023-04-12T06:51:55;7.20;;;1.60;;
38083;SDS011;23894;51.466;7.444;2023-04-12T06:53:58;5.03;;;1.55;;
38083;SDS011;23894;51.466;7.444;2023-04-12T06:56:09;5.80;;;1.58;;
38083;SDS011;23894;51.466;7.444;2023-04-12T06:58:12;6.40;;;1.60;;
38083;SDS011;23894;51.466;7.444;2023-04-12T07:00:14;6.70;;;1.50;;
38083;SDS011;23894;51.466;7.444;2023-04-12T07:02:18;5.28;;;1.70;;
38083;SDS011;23894;51.466;7.444;2023-04-12T07:04:21;4.22;;;1.45;;
38083;SDS011;23894;51.466;7.444;2023-04-12T07:06:26;5.57;;;1.60;;
38083;SDS011;23894;51.466;7.444;2023-04-12T07:08:37;5.30;;;1.70;;
38083;SDS011;23894;51.466;7.444;2023-04-12T07:10:40;3.45;;;1.35;;
38083;SDS011;23894;51.466;7.444;2023-04-12T07:12:43;4.07;;;1.52;;
38083;SDS011;23894;51.466;7.444;2023-04-12T07:14:45;4.97;;;1.60;;
38083;SDS011;23894;51.466;7.444;2023-04-12T07:16:49;4.28;;;1.70;;
38083;SDS011;23894;51.466;7.444;2023-04-12T07:18:50;5.20;;;1.80;;
38083;SDS011;23894;51.466;7.444;2023-04-12T07:20:53;3.95;;;1.38;;
38083;SDS011;23894;51.466;7.444;2023-04-12T07:22:55;4.32;;;1.50;;
38083;SDS011;23894;51.466;7.444;2023-04-12T07:24:58;4.18;;;1.70;;
38083;SDS011;23894;51.466;7.444;2023-04-12T07:27:00;4.25;;;1.75;;
38083;SDS011;23894;51.466;7.444;2023-04-12T07:29:02;3.22;;;1.30;;
38083;SDS011;23894;51.466;7.444;2023-04-12T07:31:06;3.70;;;1.38;;
38083;SDS011;23894;51.466;7.444;2023-04-12T07:33:08;3.63;;;1.40;;
38083;SDS011;23894;51.466;7.444;2023-04-12T07:35:10;3.50;;;1.30;;
38083;SDS011;23894;51.466;7.444;2023-04-12T07:37:13;3.50;;;1.23;;
38083;SDS011;23894;51.466;7.444;2023-04-12T07:39:18;3.10;;;1.23;;
38083;SDS011;23894;51.466;7.444;2023-04-12T07:41:20;4.20;;;1.30;;
38083;SDS011;23894;51.466;7.444;2023-04-12T07:43:24;3.33;;;1.30;;
38083;SDS011;23894;51.466;7.444;2023-04-12T07:45:26;3.05;;;1.30;;
38083;SDS011;23894;51.466;7.444;2023-04-12T07:47:28;5.22;;;1.48;;
38083;SDS011;23894;51.466;7.444;2023-04-12T07:49:32;3.63;;;1.33;;
38083;SDS011;23894;51.466;7.444;2023-04-12T07:51:35;5.40;;;1.20;;
38083;SDS011;23894;51.466;7.444;2023-04-12T07:53:37;3.38;;;1.20;;
38083;SDS011;23894;51.466;7.444;2023-04-12T07:55:44;3.97;;;1.40;;
38083;SDS011;23894;51.466;7.444;2023-04-12T07:57:49;3.42;;;1.10;;
38083;SDS011;23894;51.466;7.444;2023-04-12T08:00:21;3.78;;;1.35;;
38083;SDS011;23894;51.466;7.444;2023-04-12T08:02:23;4.00;;;1.50;;
38083;SDS011;23894;51.466;7.444;2023-04-12T08:04:29;2.53;;;1.20;;
38083;SDS011;23894;51.466;7.444;2023-04-12T08:06:33;2.92;;;1.13;;
38083;SDS011;23894;51.466;7.444;2023-04-12T08:08:35;2.55;;;1.10;;
38083;SDS011;23894;51.466;7.444;2023-04-12T08:10:37;3.55;;;1.33;;
38083;SDS011;23894;51.466;7.444;2023-04-12T08:12:41;5.60;;;1.50;;
38083;SDS011;23894;51.466;7.444;2023-04-12T08:14:45;3.08;;;1.20;;
38083;SDS011;23894;51.466;7.444;2023-04-12T08:16:46;4.22;;;1.20;;
38083;SDS011;23894;51.466;7.444;2023-04-12T08:18:50;3.90;;;1.10;;
38083;SDS011;23894;51.466;7.444;2023-04-12T08:20:54;3.63;;;1.10;;
38083;SDS011;23894;51.466;7.444;2023-04-12T08:22:57;3.03;;;1.20;;
38083;SDS011;23894;51.466;7.444;2023-04-12T08:24:59;2.53;;;1.13;;
38083;SDS011;23894;51.466;7.444;2023-04-12T08:27:00;2.83;;;1.10;;
38083;SDS011;23894;51.466;7.444;2023-04-12T08:29:01;3.23;;;1.13;;
38083;SDS011;23894;51.466;7.444;2023-04-12T08:31:04;5.00;;;1.40;;
38083;SDS011;23894;51.466;7.444;2023-04-12T08:33:08;3.30;;;1.20;;
38083;SDS011;23894;51.466;7.444;2023-04-12T08:35:10;3.65;;;1.20;;
38083;SDS011;23894;51.466;7.444;2023-04-12T08:37:14;3.60;;;1.27;;
38083;SDS011;23894;51.466;7.444;2023-04-12T08:39:16;4.32;;;1.40;;
38083;SDS011;23894;51.466;7.444;2023-04-12T08:41:18;5.57;;;1.30;;
38083;SDS011;23894;51.466;7.444;2023-04-12T08:43:20;6.22;;;1.20;;
38083;SDS011;23894;51.466;7.444;2023-04-12T08:45:25;5.18;;;1.55;;
38083;SDS011;23894;51.466;7.444;2023-04-12T08:47:31;3.10;;;1.30;;
38083;SDS011;23894;51.466;7.444;2023-04-12T08:49:35;3.22;;;1.10;;
38083;SDS011;23894;51.466;7.444;2023-04-12T08:51:37;3.60;;;1.10;;
38083;SDS011;23894;51.466;7.444;2023-04-12T08:53:41;3.00;;;1.30;;
38083;SDS011;23894;51.466;7.444;2023-04-12T08:55:44;3.50;;;1.10;;
38083;SDS011;23894;51.466;7.444;2023-04-12T08:57:47;3.20;;;1.10;;
38083;SDS011;23894;51.466;7.444;2023-04-12T08:59:50;3.00;;;1.10;;
38083;SDS011;23894;51.466;7.444;2023-04-12T09:01:56;3.25;;;1.10;;
38083;SDS011;23894;51.466;7.444;2023-04-12T09:03:58;2.78;;;1.10;;
38083;SDS011;23894;51.466;7.444;2023-04-12T09:06:05;2.20;;;1.00;;
38083;SDS011;23894;51.466;7.444;2023-04-12T09:08:08;3.20;;;1.15;;
38083;SDS011;23894;51.466;7.444;2023-04-12T09:10:28;4.13;;;1.30;;
38083;SDS011;23894;51.466;7.444;2023-04-12T09:12:33;3.60;;;1.20;;
38083;SDS011;23894;51.466;7.444;2023-04-12T09:14:36;2.57;;;1.03;;
38083;SDS011;23894;51.466;7.444;2023-04-12T09:16:39;2.10;;;1.02;;
38083;SDS011;23894;51.466;7.444;2023-04-12T09:18:50;3.03;;;1.10;;
38083;SDS011;23894;51.466;7.444;2023-04-12T09:21:09;2.85;;;1.27;;
38083;SDS011;23894;51.466;7.444;2023-04-12T09:23:20;3.50;;;1.27;;
38083;SDS011;23894;51.466;7.444;2023-04-12T09:25:38;3.42;;;1.10;;
38083;SDS011;23894;51.466;7.444;2023-04-12T09:27:50;3.90;;;1.23;;
38083;SDS011;23894;51.466;7.444;2023-04-12T09:30:07;4.33;;;1.33;;
38083;SDS011;23894;51.466;7.444;2023-04-12T09:32:10;3.33;;;1.10;;
38083;SDS011;23894;51.466;7.444;2023-04-12T09:34:12;4.07;;;1.20;;
38083;SDS011;23894;51.466;7.444;2023-04-12T09:36:15;3.70;;;1.40;;
38083;SDS011;23894;51.466;7.444;2023-04-12T09:38:18;3.80;;;1.10;;
38083;SDS011;23894;51.466;7.444;2023-04-12T09:40:22;3.40;;;1.20;;
38083;SDS011;23894;51.466;7.444;2023-04-12T09:42:30;2.88;;;1.10;;
38083;SDS011;23894;51.466;7.444;2023-04-12T09:44:35;5.40;;;1.40;;
38083;SDS011;23894;51.466;7.444;2023-04-12T09:46:49;3.28;;;1.30;;
38083;SDS011;23894;51.466;7.444;2023-04-12T09:48:53;3.30;;;1.17;;
38083;SDS011;23894;51.466;7.444;2023-04-12T09:51:01;3.42;;;1.30;;
38083;SDS011;23894;51.466;7.444;2023-04-12T09:53:11;4.33;;;1.30;;
38083;SDS011;23894;51.466;7.444;2023-04-12T09:55:17;3.03;;;1.20;;
38083;SDS011;23894;51.466;7.444;2023-04-12T09:57:25;3.20;;;1.20;;
38083;SDS011;23894;51.466;7.444;2023-04-12T09:59:29;3.03;;;1.23;;
38083;SDS011;23894;51.466;7.444;2023-04-12T10:01:37;3.33;;;1.35;;
38083;SDS011;23894;51.466;7.444;2023-04-12T10:03:41;3.90;;;1.60;;
38083;SDS011;23894;51.466;7.444;2023-04-12T10:05:43;3.15;;;1.20;;
38083;SDS011;23894;51.466;7.444;2023-04-12T10:07:46;3.05;;;1.10;;
38083;SDS011;23894;51.466;7.444;2023-04-12T10:09:48;2.80;;;1.13;;
38083;SDS011;23894;51.466;7.444;2023-04-12T10:11:52;3.03;;;1.13;;
38083;SDS011;23894;51.466;7.444;2023-04-12T10:13:55;3.40;;;1.10;;
38083;SDS011;23894;51.466;7.444;2023-04-12T10:15:57;3.40;;;1.30;;
38083;SDS011;23894;51.466;7.444;2023-04-12T10:18:01;3.20;;;1.20;;
38083;SDS011;23894;51.466;7.444;2023-04-12T10:20:03;2.85;;;1.20;;
38083;SDS011;23894;51.466;7.444;2023-04-12T10:22:06;2.95;;;1.10;;
38083;SDS011;23894;51.466;7.444;2023-04-12T10:24:08;2.42;;;0.90;;
38083;SDS011;23894;51.466;7.444;2023-04-12T10:26:14;3.92;;;1.20;;
38083;SDS011;23894;51.466;7.444;2023-04-12T10:28:18;2.83;;;1.15;;
38083;SDS011;23894;51.466;7.444;2023-04-12T10:30:24;1.90;;;0.90;;
38083;SDS011;23894;51.466;7.444;2023-04-12T10:32:27;3.03;;;1.10;;
38083;SDS011;23894;51.466;7.444;2023-04-12T10:34:29;2.80;;;0.90;;
38083;SDS011;23894;51.466;7.444;2023-04-12T10:39:06;5.30;;;1.05;;
38083;SDS011;23894;51.466;7.444;2023-04-12T10:41:14;4.30;;;1.30;;
38083;SDS011;23894;51.466;7.444;2023-04-12T10:43:25;3.63;;;1.02;;
38083;SDS011;23894;51.466;7.444;2023-04-12T10:52:11;2.47;;;1.00;;
38083;SDS011;23894;51.466;7.444;2023-04-12T11:03:02;2.28;;;0.90;;
38083;SDS011;23894;51.466;7.444;2023-04-12T11:05:11;2.08;;;0.90;;
38083;SDS011;23894;51.466;7.444;2023-04-12T11:07:19;2.03;;;0.90;;
38083;SDS011;23894;51.466;7.444;2023-04-12T11:11:27;3.65;;;1.05;;
38083;SDS011;23894;51.466;7.444;2023-04-12T11:13:38;2.17;;;0.90;;
38083;SDS011;23894;51.466;7.444;2023-04-12T11:15:40;2.00;;;0.90;;
38083;SDS011;23894;51.466;7.444;2023-04-12T11:17:53;1.58;;;0.80;;
38083;SDS011;23894;51.466;7.444;2023-04-12T11:19:56;2.40;;;0.90;;
38083;SDS011;23894;51.466;7.444;2023-04-12T11:21:59;2.50;;;0.80;;
38083;SDS011;23894;51.466;7.444;2023-04-12T11:24:02;2.25;;;1.00;;
38083;SDS011;23894;51.466;7.444;2023-04-12T11:26:03;2.55;;;1.00;;
38083;SDS011;23894;51.466;7.444;2023-04-12T11:28:05;2.57;;;1.00;;
38083;SDS011;23894;51.466;7.444;2023-04-12T11:30:07;2.40;;;1.00;;
38083;SDS011;23894;51.466;7.444;2023-04-12T11:32:13;2.30;;;0.98;;
38083;SDS011;23894;51.466;7.444;2023-04-12T11:34:24;3.08;;;1.20;;
38083;SDS011;23894;51.466;7.444;2023-04-12T11:36:28;2.45;;;1.00;;
38083;SDS011;23894;51.466;7.444;2023-04-12T11:38:29;2.67;;;1.23;;
38083;SDS011;23894;51.466;7.444;2023-04-12T11:40:30;5.05;;;1.90;;
38083;SDS011;23894;51.466;7.444;2023-04-12T11:42:32;4.00;;;1.80;;
38083;SDS011;23894;51.466;7.444;2023-04-12T11:44:34;4.00;;;1.88;;
38083;SDS011;23894;51.466;7.444;2023-04-12T11:46:35;4.10;;;1.60;;
38083;SDS011;23894;51.466;7.444;2023-04-12T11:48:37;3.30;;;1.40;;
38083;SDS011;23894;51.466;7.444;2023-04-12T11:50:39;4.15;;;1.40;;
38083;SDS011;23894;51.466;7.444;2023-04-12T11:52:42;3.55;;;1.33;;
38083;SDS011;23894;51.466;7.444;2023-04-12T11:54:48;3.63;;;1.60;;
38083;SDS011;23894;51.466;7.444;2023-04-12T11:56:56;3.97;;;1.50;;
38083;SDS011;23894;51.466;7.444;2023-04-12T11:58:59;3.78;;;1.60;;
38083;SDS011;23894;51.466;7.444;2023-04-12T12:01:01;3.65;;;1.50;;
38083;SDS011;23894;51.466;7.444;2023-04-12T12:03:06;4.30;;;2.10;;
38083;SDS011;23894;51.466;7.444;2023-04-12T12:05:08;4.82;;;2.03;;
38083;SDS011;23894;51.466;7.444;2023-04-12T12:07:10;3.47;;;1.60;;
38083;SDS011;23894;51.466;7.444;2023-04-12T12:09:13;4.32;;;1.73;;
38083;SDS011;23894;51.466;7.444;2023-04-12T12:11:15;5.47;;;2.10;;
38083;SDS011;23894;51.466;7.444;2023-04-12T12:13:27;4.78;;;2.00;;
38083;SDS011;23894;51.466;7.444;2023-04-12T12:15:43;4.43;;;1.90;;
38083;SDS011;23894;51.466;7.444;2023-04-12T12:17:45;4.90;;;2.00;;
38083;SDS011;23894;51.466;7.444;2023-04-12T12:19:55;5.32;;;2.10;;
38083;SDS011;23894;51.466;7.444;2023-04-12T12:22:17;4.25;;;1.70;;
38083;SDS011;23894;51.466;7.444;2023-04-12T12:24:21;4.95;;;2.00;;
38083;SDS011;23894;51.466;7.444;2023-04-12T12:26:25;4.80;;;2.20;;
38083;SDS011;23894;51.466;7.444;2023-04-12T12:28:29;5.97;;;2.50;;
38083;SDS011;23894;51.466;7.444;2023-04-12T12:30:30;6.65;;;2.70;;
38083;SDS011;23894;51.466;7.444;2023-04-12T12:32:33;5.13;;;2.75;;
38083;SDS011;23894;51.466;7.444;2023-04-12T12:34:35;6.40;;;3.70;;
38083;SDS011;23894;51.466;7.444;2023-04-12T12:36:37;6.20;;;2.78;;
38083;SDS011;23894;51.466;7.444;2023-04-12T12:38:39;5.97;;;3.05;;
38083;SDS011;23894;51.466;7.444;2023-04-12T12:40:44;5.32;;;2.42;;
38083;SDS011;23894;51.466;7.444;2023-04-12T12:42:50;6.88;;;3.88;;
38083;SDS011;23894;51.466;7.444;2023-04-12T12:44:55;6.63;;;3.70;;
38083;SDS011;23894;51.466;7.444;2023-04-12T12:47:00;5.72;;;3.50;;
38083;SDS011;23894;51.466;7.444;2023-04-12T12:49:03;8.00;;;3.92;;
38083;SDS011;23894;51.466;7.444;2023-04-12T12:51:07;8.60;;;4.50;;
38083;SDS011;23894;51.466;7.444;2023-04-12T12:53:09;7.40;;;3.97;;
38083;SDS011;23894;51.466;7.444;2023-04-12T12:55:12;6.43;;;3.03;;
38083;SDS011;23894;51.466;7.444;2023-04-12T12:57:14;8.98;;;5.00;;
38083;SDS011;23894;51.466;7.444;2023-04-12T12:59:17;5.75;;;2.70;;